Terminal Aerodrome Forecast
Issued by NWS

Home | Current Version | Previous Version | Text Only | Print | Product List | Glossary Off
Versions: 1 2 3 4 5 6 7 8 9 10 11 12 13 14 15 16 17 18

543
FTUS43 KICT 251124
TAFSLN
TAF
KSLN 251124Z 2512/2612 30009KT P6SM SKC
     FM252000 22008KT P6SM BKN120
     FM260100 18007KT P6SM SCT250=

USA.gov is the U.S. government's official web portal to all federal, state and local government web resources and services.